sensor_id;sensor_type;location;lat;lon;timestamp;pressure;altitude;pressure_sealevel;temperature;humidity
17764;BME280;22245;52.832;13.816;2023-03-01T00:00:38;103004.78;;;-2.03;69.21
17764;BME280;22245;52.832;13.816;2023-03-01T00:04:00;103009.13;;;-2.02;69.04
17764;BME280;22245;52.832;13.816;2023-03-01T00:07:22;103015.22;;;-2.05;69.52
17764;BME280;22245;52.832;13.816;2023-03-01T00:10:43;103025.63;;;-2.09;69.27
17764;BME280;22245;52.832;13.816;2023-03-01T00:14:06;103029.94;;;-2.16;68.93
17764;BME280;22245;52.832;13.816;2023-03-01T00:17:29;103019.50;;;-2.19;70.00
17764;BME280;22245;52.832;13.816;2023-03-01T00:20:51;103024.72;;;-2.24;69.87
17764;BME280;22245;52.832;13.816;2023-03-01T00:24:13;103028.19;;;-2.25;69.71
17764;BME280;22245;52.832;13.816;2023-03-01T00:27:34;103020.31;;;-2.26;70.64
17764;BME280;22245;52.832;13.816;2023-03-01T00:31:02;103027.31;;;-2.27;70.66
17764;BME280;22245;52.832;13.816;2023-03-01T00:34:26;103022.06;;;-2.28;70.03
17764;BME280;22245;52.832;13.816;2023-03-01T00:37:47;103028.16;;;-2.29;69.69
17764;BME280;22245;52.832;13.816;2023-03-01T00:41:16;103032.47;;;-2.33;70.47
17764;BME280;22245;52.832;13.816;2023-03-01T00:44:38;103015.06;;;-2.34;69.29
17764;BME280;22245;52.832;13.816;2023-03-01T00:47:59;103010.69;;;-2.38;69.98
17764;BME280;22245;52.832;13.816;2023-03-01T00:51:24;103011.50;;;-2.47;69.54
17764;BME280;22245;52.832;13.816;2023-03-01T00:54:46;103001.06;;;-2.52;70.12
17764;BME280;22245;52.832;13.816;2023-03-01T00:58:08;102994.06;;;-2.51;69.88
17764;BME280;22245;52.832;13.816;2023-03-01T01:01:30;102980.19;;;-2.52;70.46
17764;BME280;22245;52.832;13.816;2023-03-01T01:04:52;102981.03;;;-2.53;70.88
17764;BME280;22245;52.832;13.816;2023-03-01T01:08:16;102977.56;;;-2.55;71.14
17764;BME280;22245;52.832;13.816;2023-03-01T01:11:37;102972.31;;;-2.58;70.83
17764;BME280;22245;52.832;13.816;2023-03-01T01:14:59;102963.63;;;-2.60;70.70
17764;BME280;22245;52.832;13.816;2023-03-01T01:18:21;102958.38;;;-2.60;70.13
17764;BME280;22245;52.832;13.816;2023-03-01T01:21:43;102952.28;;;-2.62;70.34
17764;BME280;22245;52.832;13.816;2023-03-01T01:25:07;102953.16;;;-2.63;70.55
17764;BME280;22245;52.832;13.816;2023-03-01T01:28:29;102951.38;;;-2.67;69.72
17764;BME280;22245;52.832;13.816;2023-03-01T01:31:51;102947.03;;;-2.67;70.28
17764;BME280;22245;52.832;13.816;2023-03-01T01:35:13;102943.53;;;-2.70;70.43
17764;BME280;22245;52.832;13.816;2023-03-01T01:38:36;102938.31;;;-2.70;69.80
17764;BME280;22245;52.832;13.816;2023-03-01T01:42:00;102946.13;;;-2.73;71.07
17764;BME280;22245;52.832;13.816;2023-03-01T01:45:28;102942.63;;;-2.77;70.04
17764;BME280;22245;52.832;13.816;2023-03-01T01:48:54;102941.75;;;-2.82;70.43
17764;BME280;22245;52.832;13.816;2023-03-01T01:52:18;102950.38;;;-2.86;69.71
17764;BME280;22245;52.832;13.816;2023-03-01T01:55:45;102947.78;;;-2.86;71.20
17764;BME280;22245;52.832;13.816;2023-03-01T01:59:09;102946.03;;;-2.89;70.57
17764;BME280;22245;52.832;13.816;2023-03-01T02:02:31;102936.47;;;-2.90;71.24
17764;BME280;22245;52.832;13.816;2023-03-01T02:05:56;102944.28;;;-2.93;70.72
17764;BME280;22245;52.832;13.816;2023-03-01T02:09:20;102951.22;;;-2.95;71.20
17764;BME280;22245;52.832;13.816;2023-03-01T02:12:44;102952.97;;;-2.94;71.53
17764;BME280;22245;52.832;13.816;2023-03-01T02:16:10;102956.41;;;-2.95;71.23
17764;BME280;22245;52.832;13.816;2023-03-01T02:19:42;102959.00;;;-2.98;71.04
17764;BME280;22245;52.832;13.816;2023-03-01T02:23:09;102945.09;;;-2.99;70.41
17764;BME280;22245;52.832;13.816;2023-03-01T02:26:35;102951.19;;;-2.98;71.29
17764;BME280;22245;52.832;13.816;2023-03-01T02:30:03;102944.22;;;-2.99;71.05
17764;BME280;22245;52.832;13.816;2023-03-01T02:33:25;102947.69;;;-3.00;71.62
17764;BME280;22245;52.832;13.816;2023-03-01T02:36:49;102949.44;;;-3.02;71.23
17764;BME280;22245;52.832;13.816;2023-03-01T02:40:14;102951.13;;;-3.05;70.22
17764;BME280;22245;52.832;13.816;2023-03-01T02:43:38;102957.19;;;-3.07;71.43
17764;BME280;22245;52.832;13.816;2023-03-01T02:47:03;102952.81;;;-3.10;71.34
17764;BME280;22245;52.832;13.816;2023-03-01T02:50:46;102949.31;;;-3.15;71.12
17764;BME280;22245;52.832;13.816;2023-03-01T02:54:21;102956.25;;;-3.17;70.32
17764;BME280;22245;52.832;13.816;2023-03-01T02:57:46;102948.44;;;-3.18;71.58
17764;BME280;22245;52.832;13.816;2023-03-01T03:01:11;102945.78;;;-3.20;70.66
17764;BME280;22245;52.832;13.816;2023-03-01T03:04:35;102944.06;;;-3.20;71.57
17764;BME280;22245;52.832;13.816;2023-03-01T03:07:59;102938.81;;;-3.24;71.15
17764;BME280;22245;52.832;13.816;2023-03-01T03:11:23;102941.41;;;-3.27;70.88
17764;BME280;22245;52.832;13.816;2023-03-01T03:14:45;102925.72;;;-3.32;70.48
17764;BME280;22245;52.832;13.816;2023-03-01T03:18:08;102926.56;;;-3.38;70.63
17764;BME280;22245;52.832;13.816;2023-03-01T03:21:32;102926.53;;;-3.41;71.44
17764;BME280;22245;52.832;13.816;2023-03-01T03:24:54;102923.94;;;-3.38;71.79
17764;BME280;22245;52.832;13.816;2023-03-01T03:28:16;102918.75;;;-3.36;71.70
17764;BME280;22245;52.832;13.816;2023-03-01T03:31:38;102905.72;;;-3.38;72.14
17764;BME280;22245;52.832;13.816;2023-03-01T03:35:00;102912.63;;;-3.38;70.55
17764;BME280;22245;52.832;13.816;2023-03-01T03:38:24;102902.25;;;-3.37;71.10
17764;BME280;22245;52.832;13.816;2023-03-01T03:41:45;102902.22;;;-3.38;70.89
17764;BME280;22245;52.832;13.816;2023-03-01T03:45:08;102897.84;;;-3.42;71.37
17764;BME280;22245;52.832;13.816;2023-03-01T03:48:29;102898.69;;;-3.45;71.32
17764;BME280;22245;52.832;13.816;2023-03-01T03:51:51;102893.47;;;-3.45;71.18
17764;BME280;22245;52.832;13.816;2023-03-01T03:55:15;102894.34;;;-3.43;70.92
17764;BME280;22245;52.832;13.816;2023-03-01T03:58:39;102896.97;;;-3.43;71.04
17764;BME280;22245;52.832;13.816;2023-03-01T04:02:01;102890.88;;;-3.43;71.03
17764;BME280;22245;52.832;13.816;2023-03-01T04:05:23;102889.13;;;-3.46;70.47
17764;BME280;22245;52.832;13.816;2023-03-01T04:08:45;102878.69;;;-3.46;69.74
17764;BME280;22245;52.832;13.816;2023-03-01T04:12:08;102880.44;;;-3.50;69.57
17764;BME280;22245;52.832;13.816;2023-03-01T04:15:31;102877.81;;;-3.48;70.41
17764;BME280;22245;52.832;13.816;2023-03-01T04:18:53;102881.31;;;-3.47;70.05
17764;BME280;22245;52.832;13.816;2023-03-01T04:22:14;102880.41;;;-3.48;69.95
17764;BME280;22245;52.832;13.816;2023-03-01T04:25:39;102879.56;;;-3.49;69.79
17764;BME280;22245;52.832;13.816;2023-03-01T04:29:02;102882.16;;;-3.52;69.22
17764;BME280;22245;52.832;13.816;2023-03-01T04:32:24;102887.31;;;-3.53;69.94
17764;BME280;22245;52.832;13.816;2023-03-01T04:35:46;102894.28;;;-3.52;69.32
17764;BME280;22245;52.832;13.816;2023-03-01T04:39:10;102884.72;;;-3.55;69.60
17764;BME280;22245;52.832;13.816;2023-03-01T04:42:33;102889.06;;;-3.55;69.72
17764;BME280;22245;52.832;13.816;2023-03-01T04:46:00;102884.72;;;-3.58;70.35
17764;BME280;22245;52.832;13.816;2023-03-01T04:49:23;102880.34;;;-3.59;68.93
17764;BME280;22245;52.832;13.816;2023-03-01T04:52:44;102884.66;;;-3.61;70.31
17764;BME280;22245;52.832;13.816;2023-03-01T04:56:06;102885.50;;;-3.62;69.29
17764;BME280;22245;52.832;13.816;2023-03-01T04:59:28;102882.91;;;-3.64;70.57
17764;BME280;22245;52.832;13.816;2023-03-01T05:02:53;102879.41;;;-3.66;69.20
17764;BME280;22245;52.832;13.816;2023-03-01T05:06:16;102865.53;;;-3.65;69.58
17764;BME280;22245;52.832;13.816;2023-03-01T05:09:37;102863.78;;;-3.66;70.05
17764;BME280;22245;52.832;13.816;2023-03-01T05:12:59;102868.09;;;-3.71;69.41
17764;BME280;22245;52.832;13.816;2023-03-01T05:16:21;102870.69;;;-3.74;70.11
17764;BME280;22245;52.832;13.816;2023-03-01T05:19:45;102870.69;;;-3.71;70.01
17764;BME280;22245;52.832;13.816;2023-03-01T05:23:07;102865.50;;;-3.71;69.56
17764;BME280;22245;52.832;13.816;2023-03-01T05:26:29;102864.59;;;-3.71;70.01
17764;BME280;22245;52.832;13.816;2023-03-01T05:29:50;102856.81;;;-3.70;69.94
17764;BME280;22245;52.832;13.816;2023-03-01T05:33:12;102857.66;;;-3.72;69.55
17764;BME280;22245;52.832;13.816;2023-03-01T05:36:36;102853.31;;;-3.72;69.10
17764;BME280;22245;52.832;13.816;2023-03-01T05:39:58;102856.78;;;-3.73;69.52
17764;BME280;22245;52.832;13.816;2023-03-01T05:43:20;102860.25;;;-3.72;69.13
17764;BME280;22245;52.832;13.816;2023-03-01T05:46:42;102858.50;;;-3.75;69.41
17764;BME280;22245;52.832;13.816;2023-03-01T05:50:05;102861.09;;;-3.76;70.14
17764;BME280;22245;52.832;13.816;2023-03-01T05:53:29;102875.84;;;-3.75;69.66
17764;BME280;22245;52.832;13.816;2023-03-01T05:56:51;102871.53;;;-3.75;69.86
17764;BME280;22245;52.832;13.816;2023-03-01T06:00:15;102866.31;;;-3.75;69.43
17764;BME280;22245;52.832;13.816;2023-03-01T06:03:37;102862.84;;;-3.75;69.56
17764;BME280;22245;52.832;13.816;2023-03-01T06:06:59;102870.69;;;-3.74;69.78
17764;BME280;22245;52.832;13.816;2023-03-01T06:10:22;102874.09;;;-3.78;69.53
17764;BME280;22245;52.832;13.816;2023-03-01T06:13:45;102865.44;;;-3.77;69.13
17764;BME280;22245;52.832;13.816;2023-03-01T06:17:07;102875.03;;;-3.73;70.07
17764;BME280;22245;52.832;13.816;2023-03-01T06:20:29;102876.75;;;-3.72;69.62
17764;BME280;22245;52.832;13.816;2023-03-01T06:23:51;102869.81;;;-3.73;70.26
17764;BME280;22245;52.832;13.816;2023-03-01T06:27:14;102875.91;;;-3.71;68.94
17764;BME280;22245;52.832;13.816;2023-03-01T06:30:36;102874.19;;;-3.69;69.19
17764;BME280;22245;52.832;13.816;2023-03-01T06:33:58;102873.31;;;-3.66;69.85
17764;BME280;22245;52.832;13.816;2023-03-01T06:37:20;102875.06;;;-3.65;69.91
17764;BME280;22245;52.832;13.816;2023-03-01T06:40:41;102883.78;;;-3.61;69.33
17764;BME280;22245;52.832;13.816;2023-03-01T06:44:04;102875.97;;;-3.61;69.91
17764;BME280;22245;52.832;13.816;2023-03-01T06:47:26;102878.59;;;-3.60;68.70
17764;BME280;22245;52.832;13.816;2023-03-01T06:50:47;102886.44;;;-3.57;70.01
17764;BME280;22245;52.832;13.816;2023-03-01T06:54:09;102876.91;;;-3.53;69.73
17764;BME280;22245;52.832;13.816;2023-03-01T06:57:31;102878.72;;;-3.47;70.80
17764;BME280;22245;52.832;13.816;2023-03-01T07:00:54;102880.47;;;-3.43;70.18
17764;BME280;22245;52.832;13.816;2023-03-01T07:04:15;102881.41;;;-3.37;69.91
17764;BME280;22245;52.832;13.816;2023-03-01T07:07:36;102870.13;;;-3.32;70.33
17764;BME280;22245;52.832;13.816;2023-03-01T07:10:58;102885.78;;;-3.28;70.68
17764;BME280;22245;52.832;13.816;2023-03-01T07:14:22;102884.13;;;-3.20;71.19
17764;BME280;22245;52.832;13.816;2023-03-01T07:17:47;102883.31;;;-3.11;70.38
17764;BME280;22245;52.832;13.816;2023-03-01T07:21:12;102889.41;;;-3.07;71.40
17764;BME280;22245;52.832;13.816;2023-03-01T07:24:34;102885.13;;;-2.99;71.92
17764;BME280;22245;52.832;13.816;2023-03-01T07:27:56;102893.88;;;-2.89;70.96
17764;BME280;22245;52.832;13.816;2023-03-01T07:31:18;102884.38;;;-2.79;71.24
17764;BME280;22245;52.832;13.816;2023-03-01T07:34:41;102881.81;;;-2.70;71.37
17764;BME280;22245;52.832;13.816;2023-03-01T07:38:03;102881.84;;;-2.62;71.49
17764;BME280;22245;52.832;13.816;2023-03-01T07:41:25;102876.69;;;-2.50;72.08
17764;BME280;22245;52.832;13.816;2023-03-01T07:44:47;102874.09;;;-2.40;71.61
17764;BME280;22245;52.832;13.816;2023-03-01T07:48:09;102879.34;;;-2.33;71.23
17764;BME280;22245;52.832;13.816;2023-03-01T07:51:32;102887.22;;;-2.22;71.27
17764;BME280;22245;52.832;13.816;2023-03-01T07:54:53;102882.91;;;-2.10;71.78
17764;BME280;22245;52.832;13.816;2023-03-01T07:58:15;102886.41;;;-1.97;71.67
17764;BME280;22245;52.832;13.816;2023-03-01T08:01:37;102882.94;;;-1.84;71.80
17764;BME280;22245;52.832;13.816;2023-03-01T08:04:59;102874.28;;;-1.67;70.58
17764;BME280;22245;52.832;13.816;2023-03-01T08:08:21;102882.97;;;-1.54;70.24
17764;BME280;22245;52.832;13.816;2023-03-01T08:11:43;102876.00;;;-1.43;70.03
17764;BME280;22245;52.832;13.816;2023-03-01T08:15:06;102878.59;;;-1.31;70.30
17764;BME280;22245;52.832;13.816;2023-03-01T08:18:28;102864.66;;;-1.20;70.77
17764;BME280;22245;52.832;13.816;2023-03-01T08:21:49;102868.09;;;-1.07;70.36
17764;BME280;22245;52.832;13.816;2023-03-01T08:25:13;102867.22;;;-0.95;70.75
17764;BME280;22245;52.832;13.816;2023-03-01T08:28:35;102856.72;;;-0.84;70.31
17764;BME280;22245;52.832;13.816;2023-03-01T08:31:56;102850.59;;;-0.73;70.08
17764;BME280;22245;52.832;13.816;2023-03-01T08:35:19;102847.06;;;-0.62;70.31
17764;BME280;22245;52.832;13.816;2023-03-01T08:38:41;102851.38;;;-0.50;70.81
17764;BME280;22245;52.832;13.816;2023-03-01T08:42:04;102847.78;;;-0.38;70.18
17764;BME280;22245;52.832;13.816;2023-03-01T08:45:26;102847.75;;;-0.26;69.55
17764;BME280;22245;52.832;13.816;2023-03-01T08:48:48;102846.81;;;-0.14;68.98
17764;BME280;22245;52.832;13.816;2023-03-01T08:52:10;102839.72;;;-0.01;69.14
17764;BME280;22245;52.832;13.816;2023-03-01T08:55:32;102834.44;;;0.08;68.84
17764;BME280;22245;52.832;13.816;2023-03-01T08:58:55;102830.84;;;0.20;69.12
17764;BME280;22245;52.832;13.816;2023-03-01T09:02:18;102829.03;;;0.28;68.94
17764;BME280;22245;52.832;13.816;2023-03-01T09:05:41;102831.56;;;0.38;68.23
17764;BME280;22245;52.832;13.816;2023-03-01T09:09:04;102824.47;;;0.49;68.16
17764;BME280;22245;52.832;13.816;2023-03-01T09:12:26;102831.41;;;0.60;68.39
17764;BME280;22245;52.832;13.816;2023-03-01T09:15:49;102827.78;;;0.68;67.84
17764;BME280;22245;52.832;13.816;2023-03-01T09:19:12;102820.66;;;0.81;66.61
17764;BME280;22245;52.832;13.816;2023-03-01T09:22:34;102822.28;;;0.95;66.07
17764;BME280;22245;52.832;13.816;2023-03-01T09:25:55;102824.78;;;1.06;65.32
17764;BME280;22245;52.832;13.816;2023-03-01T09:29:17;102829.84;;;1.21;65.35
17764;BME280;22245;52.832;13.816;2023-03-01T09:32:40;102832.31;;;1.35;64.54
17764;BME280;22245;52.832;13.816;2023-03-01T09:36:04;102826.84;;;1.49;63.57
17764;BME280;22245;52.832;13.816;2023-03-01T09:39:27;102820.53;;;1.66;62.32
17764;BME280;22245;52.832;13.816;2023-03-01T09:42:53;102822.94;;;1.80;60.72
17764;BME280;22245;52.832;13.816;2023-03-01T09:46:17;102816.63;;;1.93;60.13
17764;BME280;22245;52.832;13.816;2023-03-01T09:49:41;102812.09;;;2.03;60.13
17764;BME280;22245;52.832;13.816;2023-03-01T09:53:12;102813.63;;;2.16;58.80
17764;BME280;22245;52.832;13.816;2023-03-01T09:56:39;102809.91;;;2.30;59.01
17764;BME280;22245;52.832;13.816;2023-03-01T10:00:15;102807.91;;;2.43;59.23
17764;BME280;22245;52.832;13.816;2023-03-01T10:03:42;102805.09;;;2.54;58.98
17764;BME280;22245;52.832;13.816;2023-03-01T10:07:21;102804.88;;;2.66;57.98
17764;BME280;22245;52.832;13.816;2023-03-01T10:10:47;102809.97;;;2.75;58.49
17764;BME280;22245;52.832;13.816;2023-03-01T10:14:18;102793.09;;;2.86;58.17
17764;BME280;22245;52.832;13.816;2023-03-01T10:17:49;102798.09;;;3.00;57.69
17764;BME280;22245;52.832;13.816;2023-03-01T10:21:15;102791.72;;;3.12;57.45
17764;BME280;22245;52.832;13.816;2023-03-01T10:24:40;102790.63;;;3.22;56.89
17764;BME280;22245;52.832;13.816;2023-03-01T10:28:07;102783.41;;;3.32;56.98
17764;BME280;22245;52.832;13.816;2023-03-01T10:31:38;102781.44;;;3.42;56.75
17764;BME280;22245;52.832;13.816;2023-03-01T10:35:13;102780.31;;;3.52;56.39
17764;BME280;22245;52.832;13.816;2023-03-01T10:38:48;102785.34;;;3.63;55.49
17764;BME280;22245;52.832;13.816;2023-03-01T10:42:25;102776.34;;;3.72;55.63
17764;BME280;22245;52.832;13.816;2023-03-01T10:45:48;102770.88;;;3.80;55.88
17764;BME280;22245;52.832;13.816;2023-03-01T10:49:15;102761.03;;;3.88;56.76
17764;BME280;22245;52.832;13.816;2023-03-01T10:52:40;102764.28;;;3.99;56.48
17764;BME280;22245;52.832;13.816;2023-03-01T10:56:05;102750.81;;;4.10;55.20
17764;BME280;22245;52.832;13.816;2023-03-01T10:59:30;102754.97;;;4.20;55.68
17764;BME280;22245;52.832;13.816;2023-03-01T11:03:10;102762.56;;;4.31;54.53
17764;BME280;22245;52.832;13.816;2023-03-01T11:06:33;102758.94;;;4.35;55.04
17764;BME280;22245;52.832;13.816;2023-03-01T11:09:55;102761.44;;;4.42;54.34
17764;BME280;22245;52.832;13.816;2023-03-01T11:13:18;102748.00;;;4.49;55.83
17764;BME280;22245;52.832;13.816;2023-03-01T11:16:44;102747.81;;;4.57;54.91
17764;BME280;22245;52.832;13.816;2023-03-01T11:20:17;102740.53;;;4.67;54.57
17764;BME280;22245;52.832;13.816;2023-03-01T11:23:45;102743.81;;;4.75;54.43
17764;BME280;22245;52.832;13.816;2023-03-01T11:27:16;102743.63;;;4.82;53.15
17764;BME280;22245;52.832;13.816;2023-03-01T11:30:41;102747.97;;;4.84;53.64
17764;BME280;22245;52.832;13.816;2023-03-01T11:34:23;102742.41;;;4.93;53.16
17764;BME280;22245;52.832;13.816;2023-03-01T11:37:57;102742.19;;;5.01;53.19
17764;BME280;22245;52.832;13.816;2023-03-01T11:41:25;102740.22;;;5.08;52.53
17764;BME280;22245;52.832;13.816;2023-03-01T11:44:50;102738.16;;;5.18;52.68
17764;BME280;22245;52.832;13.816;2023-03-01T11:48:28;102720.34;;;5.25;52.00
17764;BME280;22245;52.832;13.816;2023-03-01T11:52:18;102721.03;;;5.31;50.86
17764;BME280;22245;52.832;13.816;2023-03-01T11:55:55;102720.88;;;5.36;50.70
17764;BME280;22245;52.832;13.816;2023-03-01T11:59:36;102718.91;;;5.43;51.76
17764;BME280;22245;52.832;13.816;2023-03-01T12:03:27;102719.50;;;5.53;51.45
17764;BME280;22245;52.832;13.816;2023-03-01T12:06:53;102715.78;;;5.58;48.85
17764;BME280;22245;52.832;13.816;2023-03-01T12:10:23;102713.81;;;5.65;49.18
17764;BME280;22245;52.832;13.816;2023-03-01T12:17:56;102709.78;;;5.80;48.18
17764;BME280;22245;52.832;13.816;2023-03-01T12:21:30;102705.25;;;5.84;46.15
17764;BME280;22245;52.832;13.816;2023-03-01T12:25:18;102699.84;;;5.87;46.85
17764;BME280;22245;52.832;13.816;2023-03-01T12:29:02;102691.03;;;5.88;46.60
17764;BME280;22245;52.832;13.816;2023-03-01T12:32:40;102691.66;;;5.94;47.88
17764;BME280;22245;52.832;13.816;2023-03-01T12:36:23;102677.31;;;6.03;47.48
17764;BME280;22245;52.832;13.816;2023-03-01T12:40:01;102671.69;;;6.13;47.57
17764;BME280;22245;52.832;13.816;2023-03-01T12:43:33;102663.47;;;6.20;47.79
17764;BME280;22245;52.832;13.816;2023-03-01T12:47:19;102662.28;;;6.29;48.17
17764;BME280;22245;52.832;13.816;2023-03-01T12:50:47;102657.63;;;6.36;48.25
17764;BME280;22245;52.832;13.816;2023-03-01T12:54:14;102658.31;;;6.41;48.40
17764;BME280;22245;52.832;13.816;2023-03-01T12:57:40;102646.59;;;6.48;47.63
17764;BME280;22245;52.832;13.816;2023-03-01T13:01:13;102647.22;;;6.55;47.85
17764;BME280;22245;52.832;13.816;2023-03-01T13:04:50;102648.69;;;6.62;48.26
17764;BME280;22245;52.832;13.816;2023-03-01T13:08:18;102648.41;;;6.70;48.68
17764;BME280;22245;52.832;13.816;2023-03-01T13:11:43;102649.22;;;6.72;48.16
17764;BME280;22245;52.832;13.816;2023-03-01T13:15:24;102633.22;;;6.75;48.32
17764;BME280;22245;52.832;13.816;2023-03-01T13:18:46;102626.78;;;6.83;48.60
17764;BME280;22245;52.832;13.816;2023-03-01T13:22:28;102622.97;;;6.90;48.67
17764;BME280;22245;52.832;13.816;2023-03-01T13:26:07;102618.34;;;6.95;48.32
17764;BME280;22245;52.832;13.816;2023-03-01T13:29:44;102611.06;;;7.00;48.58
17764;BME280;22245;52.832;13.816;2023-03-01T13:37:09;102606.19;;;7.12;48.94
17764;BME280;22245;52.832;13.816;2023-03-01T13:40:58;102606.06;;;7.15;48.09
17764;BME280;22245;52.832;13.816;2023-03-01T13:44:31;102604.28;;;7.15;47.93
17764;BME280;22245;52.832;13.816;2023-03-01T13:47:58;102597.94;;;7.19;48.58
17764;BME280;22245;52.832;13.816;2023-03-01T13:51:23;102590.72;;;7.23;48.26
17764;BME280;22245;52.832;13.816;2023-03-01T13:54:46;102588.75;;;7.28;48.96
17764;BME280;22245;52.832;13.816;2023-03-01T13:58:21;102586.91;;;7.30;49.21
17764;BME280;22245;52.832;13.816;2023-03-01T14:01:43;102587.56;;;7.35;49.03
17764;BME280;22245;52.832;13.816;2023-03-01T14:05:09;102590.97;;;7.39;49.21
17764;BME280;22245;52.832;13.816;2023-03-01T14:08:34;102584.59;;;7.43;49.48
17764;BME280;22245;52.832;13.816;2023-03-01T14:12:16;102576.44;;;7.48;49.10
17764;BME280;22245;52.832;13.816;2023-03-01T14:15:50;102560.34;;;7.52;49.08
17764;BME280;22245;52.832;13.816;2023-03-01T14:19:19;102570.66;;;7.59;49.31
17764;BME280;22245;52.832;13.816;2023-03-01T14:22:55;102567.16;;;7.58;49.35
17764;BME280;22245;52.832;13.816;2023-03-01T14:26:20;102563.47;;;7.62;48.69
17764;BME280;22245;52.832;13.816;2023-03-01T14:29:43;102568.63;;;7.65;48.67
17764;BME280;22245;52.832;13.816;2023-03-01T14:33:19;102564.97;;;7.68;48.59
17764;BME280;22245;52.832;13.816;2023-03-01T14:36:41;102558.94;;;7.64;48.98
17764;BME280;22245;52.832;13.816;2023-03-01T14:40:04;102556.16;;;7.67;49.71
17764;BME280;22245;52.832;13.816;2023-03-01T14:43:26;102554.63;;;7.62;49.52
17764;BME280;22245;52.832;13.816;2023-03-01T14:46:52;102551.13;;;7.61;49.51
17764;BME280;22245;52.832;13.816;2023-03-01T14:50:21;102550.19;;;7.62;49.79
17764;BME280;22245;52.832;13.816;2023-03-01T14:53:44;102545.59;;;7.66;49.99
17764;BME280;22245;52.832;13.816;2023-03-01T14:57:14;102536.66;;;7.68;49.78
17764;BME280;22245;52.832;13.816;2023-03-01T15:00:37;102539.03;;;7.75;50.04
17764;BME280;22245;52.832;13.816;2023-03-01T15:03:59;102543.13;;;7.82;49.16
17764;BME280;22245;52.832;13.816;2023-03-01T15:07:28;102541.91;;;7.89;48.90
17764;BME280;22245;52.832;13.816;2023-03-01T15:11:00;102542.66;;;7.93;48.44
17764;BME280;22245;52.832;13.816;2023-03-01T15:14:38;102533.56;;;7.99;49.34
17764;BME280;22245;52.832;13.816;2023-03-01T15:18:17;102528.97;;;8.02;49.23
17764;BME280;22245;52.832;13.816;2023-03-01T15:21:40;102533.28;;;8.05;48.90
17764;BME280;22245;52.832;13.816;2023-03-01T15:25:14;102536.22;;;7.99;48.48
17764;BME280;22245;52.832;13.816;2023-03-01T15:28:40;102534.22;;;8.04;48.44
17764;BME280;22245;52.832;13.816;2023-03-01T15:32:05;102537.66;;;8.06;49.02
17764;BME280;22245;52.832;13.816;2023-03-01T15:35:39;102528.47;;;8.13;49.17
17764;BME280;22245;52.832;13.816;2023-03-01T15:39:03;102529.84;;;8.22;48.69
17764;BME280;22245;52.832;13.816;2023-03-01T15:42:37;102530.69;;;8.22;48.66
17764;BME280;22245;52.832;13.816;2023-03-01T15:46:00;102528.53;;;8.31;49.12
17764;BME280;22245;52.832;13.816;2023-03-01T15:49:30;102519.44;;;8.36;47.91
17764;BME280;22245;52.832;13.816;2023-03-01T15:52:59;102512.03;;;8.43;47.46
17764;BME280;22245;52.832;13.816;2023-03-01T15:56:21;102520.66;;;8.48;46.94
17764;BME280;22245;52.832;13.816;2023-03-01T15:59:44;102515.00;;;8.56;46.81
17764;BME280;22245;52.832;13.816;2023-03-01T16:03:08;102520.09;;;8.61;47.10
17764;BME280;22245;52.832;13.816;2023-03-01T16:06:31;102513.84;;;8.62;46.61
17764;BME280;22245;52.832;13.816;2023-03-01T16:09:54;102513.84;;;8.62;46.49
17764;BME280;22245;52.832;13.816;2023-03-01T16:13:16;102517.44;;;8.61;46.84
17764;BME280;22245;52.832;13.816;2023-03-01T16:16:39;102509.91;;;8.51;47.18
17764;BME280;22245;52.832;13.816;2023-03-01T16:20:01;102520.16;;;8.40;47.88
17764;BME280;22245;52.832;13.816;2023-03-01T16:23:25;102531.44;;;8.26;49.18
17764;BME280;22245;52.832;13.816;2023-03-01T16:26:47;102532.84;;;8.14;49.06
17764;BME280;22245;52.832;13.816;2023-03-01T16:30:11;102529.06;;;8.01;49.78
17764;BME280;22245;52.832;13.816;2023-03-01T16:33:34;102531.44;;;7.86;50.42
17764;BME280;22245;52.832;13.816;2023-03-01T16:36:55;102534.84;;;7.69;50.82
17764;BME280;22245;52.832;13.816;2023-03-01T16:40:20;102538.09;;;7.55;51.01
17764;BME280;22245;52.832;13.816;2023-03-01T16:43:43;102537.84;;;7.41;51.50
17764;BME280;22245;52.832;13.816;2023-03-01T16:47:07;102528.72;;;7.27;51.75
17764;BME280;22245;52.832;13.816;2023-03-01T16:50:30;102527.63;;;7.10;51.76
17764;BME280;22245;52.832;13.816;2023-03-01T16:53:52;102521.13;;;6.97;52.06
17764;BME280;22245;52.832;13.816;2023-03-01T16:57:14;102525.22;;;6.84;52.55
17764;BME280;22245;52.832;13.816;2023-03-01T17:00:36;102523.25;;;6.66;53.01
17764;BME280;22245;52.832;13.816;2023-03-01T17:03:58;102525.69;;;6.49;53.15
17764;BME280;22245;52.832;13.816;2023-03-01T17:07:22;102527.13;;;6.34;53.93
17764;BME280;22245;52.832;13.816;2023-03-01T17:10:44;102525.91;;;6.20;54.09
17764;BME280;22245;52.832;13.816;2023-03-01T17:14:06;102537.91;;;6.05;54.29
17764;BME280;22245;52.832;13.816;2023-03-01T17:17:28;102531.44;;;5.89;54.84
17764;BME280;22245;52.832;13.816;2023-03-01T17:20:50;102525.84;;;5.73;55.59
17764;BME280;22245;52.832;13.816;2023-03-01T17:24:13;102529.84;;;5.59;56.20
17764;BME280;22245;52.832;13.816;2023-03-01T17:27:36;102528.53;;;5.46;56.14
17764;BME280;22245;52.832;13.816;2023-03-01T17:30:58;102532.44;;;5.35;56.60
17764;BME280;22245;52.832;13.816;2023-03-01T17:34:20;102533.63;;;5.25;56.68
17764;BME280;22245;52.832;13.816;2023-03-01T17:37:41;102535.75;;;5.15;57.44
17764;BME280;22245;52.832;13.816;2023-03-01T17:41:07;102534.38;;;5.03;57.94
17764;BME280;22245;52.832;13.816;2023-03-01T17:44:32;102533.84;;;4.92;58.37
17764;BME280;22245;52.832;13.816;2023-03-01T17:47:54;102535.13;;;4.80;58.60
17764;BME280;22245;52.832;13.816;2023-03-01T17:51:16;102534.59;;;4.69;58.97
17764;BME280;22245;52.832;13.816;2023-03-01T17:54:38;102542.88;;;4.56;59.16